Time;durP1;ratioP1;P1;durP2;ratioP2;P2;SDS_P1;SDS_P2;PMS_P1;PMS_P2;Temp;Humidity;BMP_temperature;BMP_pressure;BME280_temperature;BME280_humidity;BME280_pressure;Samples;Min_cycle;Max_cycle;Signal;HPM_P1;HPM_P2
2021/03/03 00:02:26;;;;;;;10.23;7.50;;;4.20;54.90;;;;;;5050785;28;20206;-77
2021/03/03 00:04:53;;;;;;;12.30;8.43;;;4.20;55.00;;;;;;5052045;28;20273;-77
2021/03/03 00:07:20;;;;;;;14.82;9.70;;;4.10;54.80;;;;;;5052583;28;20649;-77
2021/03/03 00:09:46;;;;;;;15.30;8.23;;;4.10;55.10;;;;;;5048590;28;20187;-77
2021/03/03 00:12:13;;;;;;;14.15;10.75;;;4.10;55.00;;;;;;5052613;28;20202;-77
2021/03/03 00:14:42;;;;;;;16.10;9.38;;;4.10;54.90;;;;;;5052185;28;20198;-77
2021/03/03 00:17:10;;;;;;;10.57;9.00;;;4.20;55.50;;;;;;5052256;28;20222;-77
2021/03/03 00:19:37;;;;;;;11.68;6.78;;;4.20;55.90;;;;;;5051484;28;20182;-77
2021/03/03 00:22:03;;;;;;;12.20;7.38;;;4.20;55.90;;;;;;5040772;28;20241;-77
2021/03/03 00:24:30;;;;;;;12.27;8.32;;;4.20;56.10;;;;;;5034424;28;20241;-78
2021/03/03 00:26:56;;;;;;;10.93;8.18;;;4.20;56.10;;;;;;5034698;28;20226;-78
2021/03/03 00:29:23;;;;;;;11.68;7.05;;;4.20;55.80;;;;;;5034624;28;20191;-77
2021/03/03 00:31:49;;;;;;;12.23;7.05;;;4.20;55.60;;;;;;5034762;28;20195;-78
2021/03/03 00:34:16;;;;;;;13.25;7.03;;;4.20;55.70;;;;;;5034478;28;20688;-77
2021/03/03 00:36:43;;;;;;;11.98;8.15;;;4.10;55.50;;;;;;5034618;28;20191;-77
2021/03/03 00:39:09;;;;;;;9.85;7.53;;;4.10;55.30;;;;;;5034422;28;20706;-77
2021/03/03 00:41:36;;;;;;;11.18;7.10;;;4.10;54.90;;;;;;5034560;28;20273;-77
2021/03/03 00:44:07;;;;;;;8.80;6.82;;;4.10;54.60;;;;;;5034368;28;20273;-77
2021/03/03 00:46:33;;;;;;;11.75;7.32;;;4.00;54.90;;;;;;5034122;28;20637;-77
2021/03/03 00:49:00;;;;;;;11.60;6.82;;;4.00;55.10;;;;;;5034442;28;20217;-77
2021/03/03 00:51:27;;;;;;;14.23;7.70;;;3.90;55.50;;;;;;5034272;28;20274;-77
2021/03/03 00:53:53;;;;;;;11.70;7.38;;;3.90;55.80;;;;;;5033778;28;20254;-77
2021/03/03 00:56:20;;;;;;;11.88;7.90;;;3.90;55.50;;;;;;5034227;28;20202;-77
2021/03/03 00:58:46;;;;;;;9.25;5.72;;;3.90;55.50;;;;;;5034057;28;20282;-77
2021/03/03 01:01:13;;;;;;;12.60;6.65;;;3.90;55.80;;;;;;5034089;28;20218;-77
2021/03/03 01:03:39;;;;;;;11.82;7.10;;;3.90;55.50;;;;;;5034036;28;20270;-77
2021/03/03 01:06:05;;;;;;;11.00;7.00;;;3.90;55.90;;;;;;5033763;28;20199;-78
2021/03/03 01:08:33;;;;;;;8.88;6.50;;;3.80;56.00;;;;;;5033786;28;20717;-78
2021/03/03 01:10:59;;;;;;;9.25;6.50;;;3.80;55.60;;;;;;5033955;28;20273;-77
2021/03/03 01:13:26;;;;;;;9.52;6.32;;;3.80;55.50;;;;;;5033771;28;20318;-77
2021/03/03 01:15:52;;;;;;;10.02;6.43;;;3.80;55.90;;;;;;5033924;28;20222;-77
2021/03/03 01:18:19;;;;;;;9.10;6.32;;;3.80;55.80;;;;;;5033719;28;20282;-78
2021/03/03 01:20:45;;;;;;;9.82;7.13;;;3.70;55.70;;;;;;5033544;28;20290;-77
2021/03/03 01:23:11;;;;;;;12.88;7.93;;;3.70;55.90;;;;;;5033581;28;20286;-78
2021/03/03 01:25:39;;;;;;;13.13;8.80;;;3.40;56.40;;;;;;5033716;28;20227;-78
2021/03/03 01:28:05;;;;;;;9.70;7.47;;;3.20;57.20;;;;;;5033392;28;20286;-78
2021/03/03 01:30:32;;;;;;;9.13;5.97;;;3.10;57.80;;;;;;5032627;28;20265;-77
2021/03/03 01:32:58;;;;;;;10.00;5.88;;;3.20;57.80;;;;;;5033283;28;20223;-78
2021/03/03 01:35:25;;;;;;;11.38;6.47;;;3.10;57.30;;;;;;5033281;28;20278;-77
2021/03/03 01:37:51;;;;;;;11.25;6.28;;;3.00;57.80;;;;;;5033385;28;20219;-77
2021/03/03 01:40:18;;;;;;;7.32;5.20;;;3.00;58.00;;;;;;5033433;28;20233;-77
2021/03/03 01:42:45;;;;;;;7.07;5.05;;;3.10;57.60;;;;;;5033268;28;20282;-77
2021/03/03 01:45:13;;;;;;;10.80;5.90;;;3.10;57.50;;;;;;5033080;28;20645;-77
2021/03/03 01:47:39;;;;;;;9.88;6.80;;;3.10;57.00;;;;;;5033170;28;20293;-77
2021/03/03 01:50:08;;;;;;;5.95;4.70;;;3.10;56.90;;;;;;5032941;28;20230;-78
2021/03/03 01:52:38;;;;;;;9.82;5.60;;;3.10;57.20;;;;;;5032922;28;20187;-78
2021/03/03 01:55:08;;;;;;;8.38;5.95;;;3.00;56.20;;;;;;5032897;28;20286;-77
2021/03/03 01:57:35;;;;;;;11.38;5.38;;;3.00;56.00;;;;;;5032936;28;20648;-78
2021/03/03 02:00:04;;;;;;;8.57;6.45;;;3.00;56.10;;;;;;5032915;28;20194;-77
2021/03/03 02:02:31;;;;;;;12.57;6.32;;;2.90;55.60;;;;;;5032870;28;20216;-77
2021/03/03 02:04:57;;;;;;;10.88;7.55;;;2.90;55.30;;;;;;5032886;28;20282;-77
2021/03/03 02:07:34;;;;;;;13.18;8.20;;;2.90;55.10;;;;;;5032954;28;20195;-77
2021/03/03 02:10:05;;;;;;;9.02;6.95;;;2.80;55.10;;;;;;5032823;28;20191;-77
2021/03/03 02:12:37;;;;;;;10.40;6.20;;;2.80;55.10;;;;;;5032906;28;20257;-78
2021/03/03 02:15:08;;;;;;;13.45;6.20;;;2.80;55.60;;;;;;5032877;28;20187;-78
2021/03/03 02:17:36;;;;;;;8.45;6.85;;;2.80;55.90;;;;;;5032662;28;20602;-78
2021/03/03 02:20:06;;;;;;;11.15;7.72;;;2.70;55.90;;;;;;5032520;28;20369;-77
2021/03/03 02:22:43;;;;;;;9.60;6.63;;;2.60;55.80;;;;;;5032369;28;20226;-78
2021/03/03 02:25:29;;;;;;;9.80;6.50;;;2.60;55.90;;;;;;5032552;28;20190;-78
2021/03/03 02:27:59;;;;;;;8.82;6.00;;;2.60;55.90;;;;;;5032765;28;20191;-77
2021/03/03 02:30:26;;;;;;;9.40;5.95;;;2.50;55.60;;;;;;5032144;28;20219;-77
2021/03/03 02:32:53;;;;;;;7.22;5.30;;;2.40;54.50;;;;;;5032676;28;20265;-77
2021/03/03 02:35:20;;;;;;;7.32;4.78;;;2.30;54.40;;;;;;5032441;28;20226;-78
2021/03/03 02:37:48;;;;;;;8.07;5.18;;;2.20;54.80;;;;;;5032407;28;20191;-77
2021/03/03 02:40:16;;;;;;;6.45;4.25;;;2.10;55.30;;;;;;5032484;28;20191;-77
2021/03/03 02:42:44;;;;;;;9.52;5.60;;;2.00;56.00;;;;;;5034538;28;20199;-78
2021/03/03 02:45:14;;;;;;;9.60;4.55;;;2.00;56.20;;;;;;5036507;28;20226;-78
2021/03/03 02:47:42;;;;;;;8.70;5.72;;;2.00;57.10;;;;;;5036467;28;20288;-77
2021/03/03 02:50:11;;;;;;;8.57;5.38;;;2.00;57.50;;;;;;5036352;28;20309;-77
2021/03/03 02:52:51;;;;;;;9.32;5.18;;;1.90;57.80;;;;;;5035993;28;20268;-78
2021/03/03 02:55:19;;;;;;;7.50;4.80;;;2.00;58.30;;;;;;5036322;28;20187;-77
2021/03/03 02:57:47;;;;;;;8.80;5.20;;;2.00;58.40;;;;;;5036233;28;20288;-77
2021/03/03 03:00:15;;;;;;;5.93;4.50;;;2.00;58.60;;;;;;5036039;28;20671;-77
2021/03/03 03:02:46;;;;;;;8.32;6.45;;;1.90;58.80;;;;;;5036144;28;20198;-77
2021/03/03 03:05:14;;;;;;;7.13;5.88;;;1.90;59.20;;;;;;5036135;28;20203;-77
2021/03/03 03:07:47;;;;;;;7.80;4.97;;;1.90;59.90;;;;;;5036180;28;20640;-77
2021/03/03 03:10:16;;;;;;;6.97;4.50;;;2.00;59.90;;;;;;5036133;28;20638;-77
2021/03/03 03:12:47;;;;;;;9.18;4.55;;;2.00;60.10;;;;;;5035990;28;20195;-77
2021/03/03 03:15:16;;;;;;;6.38;3.90;;;2.00;60.00;;;;;;5036061;28;20195;-77
2021/03/03 03:17:46;;;;;;;10.35;4.45;;;2.00;60.30;;;;;;5035738;28;20206;-77
2021/03/03 03:20:15;;;;;;;6.53;4.50;;;2.00;61.20;;;;;;5035753;28;20209;-77
2021/03/03 03:22:43;;;;;;;9.32;4.00;;;2.10;61.10;;;;;;5035514;28;20194;-77
2021/03/03 03:25:11;;;;;;;7.82;4.30;;;2.10;60.30;;;;;;5035556;28;20260;-77
2021/03/03 03:27:38;;;;;;;7.20;3.70;;;2.20;59.40;;;;;;5035499;28;20249;-77
2021/03/03 03:30:08;;;;;;;6.47;4.47;;;2.20;58.70;;;;;;5034944;28;20231;-77
2021/03/03 03:32:34;;;;;;;7.22;4.18;;;2.30;58.60;;;;;;5035357;28;20666;-77
2021/03/03 03:35:01;;;;;;;5.10;3.63;;;2.30;58.60;;;;;;5035558;28;20199;-77
2021/03/03 03:37:29;;;;;;;8.80;3.65;;;2.30;58.80;;;;;;5035590;28;20195;-76
2021/03/03 03:39:55;;;;;;;8.10;5.13;;;2.30;59.10;;;;;;5035396;28;20195;-77
2021/03/03 03:42:22;;;;;;;11.27;5.10;;;2.30;59.40;;;;;;5035542;28;20245;-77
2021/03/03 03:44:50;;;;;;;8.20;4.43;;;2.30;59.30;;;;;;5035496;28;20197;-77
2021/03/03 03:47:19;;;;;;;7.80;4.90;;;2.30;59.20;;;;;;5035258;28;20221;-78
2021/03/03 03:49:46;;;;;;;7.75;4.82;;;2.30;58.80;;;;;;5035197;28;20199;-77
2021/03/03 03:52:16;;;;;;;6.93;4.60;;;2.40;58.70;;;;;;5034829;28;20202;-77
2021/03/03 03:54:49;;;;;;;6.80;4.10;;;2.40;58.50;;;;;;5034795;28;20226;-78
2021/03/03 03:57:16;;;;;;;8.70;4.20;;;2.40;58.20;;;;;;5035268;28;20234;-77
2021/03/03 03:59:42;;;;;;;7.50;3.90;;;2.40;57.60;;;;;;5035043;28;20191;-77
2021/03/03 04:02:08;;;;;;;7.15;3.45;;;2.30;57.30;;;;;;5035475;28;20202;-78
2021/03/03 04:04:36;;;;;;;7.50;4.10;;;2.30;57.20;;;;;;5034965;28;20206;-77
2021/03/03 04:07:02;;;;;;;6.10;3.95;;;2.20;57.10;;;;;;5035285;28;20537;-77
2021/03/03 04:09:29;;;;;;;9.75;4.57;;;2.10;57.20;;;;;;5035053;28;20609;-77
2021/03/03 04:11:56;;;;;;;6.45;3.92;;;2.10;57.00;;;;;;5035082;28;20576;-77
2021/03/03 04:14:23;;;;;;;7.03;4.47;;;2.10;56.90;;;;;;5035081;28;20211;-77
2021/03/03 04:16:49;;;;;;;7.78;4.03;;;2.00;56.90;;;;;;5034899;28;20195;-77
2021/03/03 04:19:16;;;;;;;7.90;3.70;;;1.90;57.00;;;;;;5034846;28;20195;-77
2021/03/03 04:21:44;;;;;;;6.00;3.60;;;1.90;57.50;;;;;;5034879;28;20195;-77
2021/03/03 04:24:10;;;;;;;6.63;3.85;;;1.90;57.70;;;;;;5034727;28;20194;-76
2021/03/03 04:26:37;;;;;;;11.38;4.85;;;1.90;57.60;;;;;;5034560;28;20246;-77
2021/03/03 04:29:04;;;;;;;4.65;4.00;;;1.80;57.70;;;;;;5034742;28;20192;-77
2021/03/03 04:31:30;;;;;;;5.72;3.38;;;1.80;57.40;;;;;;5034675;28;20305;-78
2021/03/03 04:33:56;;;;;;;6.32;3.47;;;1.80;57.60;;;;;;5034542;28;20345;-77
2021/03/03 04:36:23;;;;;;;6.90;4.35;;;1.70;58.00;;;;;;5034581;28;20541;-76
2021/03/03 04:38:50;;;;;;;5.85;3.00;;;1.80;57.90;;;;;;5034626;28;20199;-77
2021/03/03 04:41:17;;;;;;;7.45;3.65;;;1.80;57.90;;;;;;5034613;28;20266;-77
2021/03/03 04:43:43;;;;;;;7.88;4.35;;;1.80;57.90;;;;;;5034507;28;20195;-77
2021/03/03 04:46:10;;;;;;;7.35;4.32;;;1.80;57.90;;;;;;5034323;28;20272;-77
2021/03/03 04:48:36;;;;;;;5.88;4.18;;;1.80;57.90;;;;;;5034337;28;20214;-77
2021/03/03 04:51:02;;;;;;;6.55;4.10;;;1.90;57.70;;;;;;5034332;28;20690;-77
2021/03/03 04:53:29;;;;;;;5.18;4.35;;;1.90;58.00;;;;;;5033929;28;20280;-77
2021/03/03 04:55:56;;;;;;;7.28;4.10;;;1.90;57.80;;;;;;5034238;28;20195;-76
2021/03/03 04:58:23;;;;;;;9.65;5.57;;;1.80;57.70;;;;;;5034482;28;20205;-77
2021/03/03 05:00:49;;;;;;;7.68;5.78;;;1.90;57.60;;;;;;5034266;28;20191;-77
2021/03/03 05:03:16;;;;;;;7.50;6.30;;;1.90;58.00;;;;;;5034016;28;20633;-78
2021/03/03 05:05:42;;;;;;;8.02;5.10;;;1.90;58.40;;;;;;5033044;28;20222;-77
2021/03/03 05:08:08;;;;;;;8.82;4.70;;;2.00;58.60;;;;;;5034048;28;20195;-77
2021/03/03 05:10:35;;;;;;;5.50;4.25;;;2.00;58.80;;;;;;5034205;28;20230;-77
2021/03/03 05:13:02;;;;;;;5.22;4.10;;;2.10;58.80;;;;;;5033899;28;20210;-78
2021/03/03 05:15:29;;;;;;;5.25;3.30;;;2.10;58.70;;;;;;5034076;28;20263;-76
2021/03/03 05:17:55;;;;;;;9.30;4.25;;;2.10;58.80;;;;;;5033857;28;20199;-77
2021/03/03 05:20:22;;;;;;;6.00;4.07;;;2.20;58.80;;;;;;5033854;28;20210;-78
2021/03/03 05:22:48;;;;;;;7.43;3.58;;;2.20;58.20;;;;;;5033957;28;20199;-77
2021/03/03 05:25:15;;;;;;;7.10;3.58;;;2.20;58.00;;;;;;5033752;28;20198;-78
2021/03/03 05:27:41;;;;;;;14.23;4.85;;;2.30;58.20;;;;;;5033527;28;20245;-78
2021/03/03 05:30:10;;;;;;;6.18;4.35;;;2.30;58.10;;;;;;5033453;28;20230;-79
2021/03/03 05:32:36;;;;;;;6.40;3.97;;;2.30;58.10;;;;;;5033814;28;20195;-78
2021/03/03 05:35:04;;;;;;;5.90;3.28;;;2.30;57.90;;;;;;5033601;28;20191;-77
2021/03/03 05:37:31;;;;;;;7.60;4.47;;;2.30;57.30;;;;;;5033606;28;20223;-77
2021/03/03 05:39:57;;;;;;;7.57;4.50;;;2.30;56.50;;;;;;5033683;28;20195;-77
2021/03/03 05:42:24;;;;;;;8.40;6.30;;;2.20;56.50;;;;;;5033380;28;20195;-78
2021/03/03 05:44:51;;;;;;;10.38;6.40;;;2.20;56.80;;;;;;5033603;28;20667;-77
2021/03/03 05:47:20;;;;;;;9.05;5.60;;;2.10;56.60;;;;;;5033479;28;20190;-78
2021/03/03 05:49:51;;;;;;;7.70;6.05;;;2.10;56.80;;;;;;5033330;28;20573;-77
2021/03/03 05:52:19;;;;;;;9.05;5.47;;;2.10;56.90;;;;;;5033373;28;20221;-78
2021/03/03 05:54:47;;;;;;;8.50;5.05;;;2.10;57.00;;;;;;5033246;28;20272;-77
2021/03/03 05:57:16;;;;;;;8.43;4.93;;;2.10;57.30;;;;;;5033225;28;20198;-77
2021/03/03 05:59:43;;;;;;;8.18;5.00;;;2.20;57.60;;;;;;5033283;28;20277;-77
2021/03/03 06:02:10;;;;;;;11.98;4.70;;;2.10;57.20;;;;;;5033223;28;20625;-78
2021/03/03 06:04:39;;;;;;;6.32;4.43;;;2.10;57.50;;;;;;5033078;28;20187;-78
2021/03/03 06:07:05;;;;;;;7.40;4.30;;;2.10;57.30;;;;;;5033184;28;20659;-78
2021/03/03 06:09:32;;;;;;;5.90;5.00;;;2.10;57.60;;;;;;5032988;28;20645;-77
2021/03/03 06:11:58;;;;;;;10.82;5.05;;;2.00;57.60;;;;;;5033105;28;20617;-77
2021/03/03 06:14:25;;;;;;;8.13;4.32;;;2.10;57.50;;;;;;5043697;28;20271;-78
2021/03/03 06:16:54;;;;;;;13.65;4.55;;;2.00;57.30;;;;;;5052904;28;20611;-71
2021/03/03 06:19:20;;;;;;;8.60;4.50;;;2.00;57.70;;;;;;5052733;28;20205;-71
2021/03/03 06:21:48;;;;;;;11.30;5.72;;;2.10;58.20;;;;;;5052704;28;20194;-71
2021/03/03 06:24:14;;;;;;;6.63;4.20;;;2.20;58.60;;;;;;5052477;28;20233;-71
2021/03/03 06:26:55;;;;;;;7.18;4.30;;;2.30;58.80;;;;;;5052551;28;20195;-77
2021/03/03 06:29:22;;;;;;;6.85;4.55;;;2.50;59.00;;;;;;5052560;28;20198;-78
2021/03/03 06:31:49;;;;;;;13.95;6.93;;;2.60;59.00;;;;;;5045684;28;20214;-78
2021/03/03 06:34:19;;;;;;;9.38;5.63;;;2.80;58.80;;;;;;5045251;28;20725;-79
2021/03/03 06:36:58;;;;;;;14.40;5.97;;;2.90;58.20;;;;;;5051007;28;20202;-79
2021/03/03 06:39:27;;;;;;;5.97;4.90;;;2.90;57.70;;;;;;5053061;28;20186;-78
2021/03/03 06:41:55;;;;;;;7.63;5.13;;;3.00;57.20;;;;;;5046647;28;20199;-79
2021/03/03 06:44:22;;;;;;;10.93;5.47;;;3.00;57.50;;;;;;5032557;28;20206;-77
2021/03/03 06:47:05;;;;;;;11.57;5.35;;;3.00;57.30;;;;;;5032647;28;20179;-76
2021/03/03 06:49:34;;;;;;;11.55;5.60;;;3.10;57.00;;;;;;5031827;28;20713;-78
2021/03/03 06:52:03;;;;;;;8.63;5.25;;;3.20;56.70;;;;;;5037395;28;20183;-77
2021/03/03 06:54:30;;;;;;;9.15;5.15;;;3.30;56.40;;;;;;5051970;28;20616;-77
2021/03/03 06:56:57;;;;;;;9.00;5.32;;;3.40;55.90;;;;;;5049939;28;20182;-77
2021/03/03 06:59:26;;;;;;;11.00;6.07;;;3.40;55.80;;;;;;5051798;28;20205;-78
2021/03/03 07:01:55;;;;;;;9.68;5.43;;;3.40;56.10;;;;;;5045923;28;20552;-77
2021/03/03 07:04:27;;;;;;;14.65;5.40;;;3.50;56.00;;;;;;5032154;28;20195;-77
2021/03/03 07:06:54;;;;;;;6.93;4.00;;;3.60;55.80;;;;;;5037085;28;20648;-77
2021/03/03 07:09:24;;;;;;;9.15;3.70;;;3.70;56.90;;;;;;5047151;28;20240;-77
2021/03/03 07:12:09;;;;;;;5.82;3.53;;;3.90;56.30;;;;;;5051772;28;20194;-77
2021/03/03 07:14:38;;;;;;;6.43;3.92;;;4.00;56.00;;;;;;5031989;28;20222;-78
2021/03/03 07:17:13;;;;;;;7.30;5.35;;;4.10;56.20;;;;;;5032328;28;20203;-78
2021/03/03 07:19:42;;;;;;;6.15;4.55;;;4.30;56.20;;;;;;5044501;28;20193;-77
2021/03/03 07:22:29;;;;;;;11.65;5.72;;;4.40;55.80;;;;;;5052418;28;20195;-77
2021/03/03 07:24:59;;;;;;;8.63;6.00;;;4.50;54.90;;;;;;5031809;28;20195;-77
2021/03/03 07:27:26;;;;;;;10.68;6.72;;;4.40;55.00;;;;;;5031797;28;20194;-78
2021/03/03 07:29:56;;;;;;;9.48;6.88;;;4.50;54.80;;;;;;5036746;28;20257;-79
2021/03/03 07:32:35;;;;;;;14.30;7.25;;;4.60;54.80;;;;;;5032533;28;20186;-78
2021/03/03 07:35:04;;;;;;;14.07;7.75;;;4.80;54.20;;;;;;5051016;28;20218;-78
2021/03/03 07:37:34;;;;;;;12.30;7.30;;;5.00;54.10;;;;;;5054518;28;20209;-78
2021/03/03 07:40:06;;;;;;;14.73;7.10;;;5.20;54.00;;;;;;5050291;28;20724;-77
2021/03/03 07:42:34;;;;;;;10.48;7.35;;;5.40;53.80;;;;;;5052664;28;20541;-78
2021/03/03 07:45:06;;;;;;;9.95;6.57;;;5.70;53.60;;;;;;5045307;28;20195;-77
2021/03/03 07:47:37;;;;;;;18.60;7.28;;;6.00;53.60;;;;;;5044173;28;20209;-76
2021/03/03 07:50:07;;;;;;;11.90;7.28;;;6.40;53.30;;;;;;5040457;28;20190;-76
2021/03/03 07:52:35;;;;;;;12.00;5.85;;;6.70;52.10;;;;;;5052068;28;20191;-76
2021/03/03 07:55:05;;;;;;;17.92;7.90;;;6.90;49.80;;;;;;5052022;28;20229;-76
2021/03/03 07:57:35;;;;;;;12.20;7.35;;;7.10;50.00;;;;;;5050952;28;20195;-76
2021/03/03 08:00:08;;;;;;;10.85;8.25;;;7.30;49.90;;;;;;5049507;28;20213;-76
2021/03/03 08:02:45;;;;;;;9.40;6.72;;;7.30;48.80;;;;;;5052677;28;20245;-77
2021/03/03 08:05:15;;;;;;;14.20;9.20;;;7.30;48.80;;;;;;5053094;28;20553;-76
2021/03/03 08:07:42;;;;;;;11.75;8.02;;;7.30;49.10;;;;;;5049205;28;20194;-76
2021/03/03 08:10:33;;;;;;;9.98;6.55;;;7.30;48.90;;;;;;5050423;28;20301;-77
2021/03/03 08:13:02;;;;;;;7.88;5.60;;;7.40;48.40;;;;;;5047537;28;20198;-77
2021/03/03 08:15:38;;;;;;;8.60;5.28;;;7.50;48.60;;;;;;5047357;28;20197;-77
2021/03/03 08:18:22;;;;;;;7.60;6.15;;;7.60;48.20;;;;;;5047193;28;20198;-76
2021/03/03 08:20:50;;;;;;;11.63;7.95;;;7.70;48.80;;;;;;5043256;28;20207;-77
2021/03/03 08:23:43;;;;;;;13.20;7.60;;;7.90;49.20;;;;;;5048890;28;20288;-76
2021/03/03 08:26:35;;;;;;;16.67;7.43;;;8.10;49.90;;;;;;5042402;28;20187;-77
2021/03/03 08:29:24;;;;;;;11.43;8.10;;;8.40;49.60;;;;;;5044054;28;20207;-77
2021/03/03 08:31:51;;;;;;;12.15;7.55;;;8.60;49.30;;;;;;5041502;28;20563;-78
2021/03/03 08:34:18;;;;;;;24.75;11.00;;;8.80;49.10;;;;;;5047586;28;20727;-77
2021/03/03 08:37:01;;;;;;;10.60;6.28;;;9.00;48.60;;;;;;5042853;28;20190;-76
2021/03/03 08:39:38;;;;;;;10.60;6.82;;;9.10;48.00;;;;;;5044768;28;20202;-77
2021/03/03 08:42:28;;;;;;;12.57;7.90;;;9.20;46.80;;;;;;5042526;28;20202;-77
2021/03/03 08:45:13;;;;;;;17.05;9.18;;;9.30;46.90;;;;;;5045324;28;20233;-76
2021/03/03 08:48:01;;;;;;;27.02;15.25;;;9.40;46.60;;;;;;5041058;28;20252;-77
2021/03/03 08:50:33;;;;;;;38.22;21.15;;;9.50;46.90;;;;;;5046408;28;20202;-76
2021/03/03 08:53:30;;;;;;;27.77;18.63;;;9.70;47.70;;;;;;5042955;28;20560;-77
2021/03/03 08:55:58;;;;;;;23.65;14.32;;;10.10;47.30;;;;;;5044294;28;20198;-77
2021/03/03 08:59:00;;;;;;;15.82;11.07;;;10.50;47.20;;;;;;5046747;28;20209;-77
2021/03/03 09:01:55;;;;;;;11.20;8.23;;;11.00;46.30;;;;;;5042680;28;20191;-77
2021/03/03 09:04:24;;;;;;;11.88;6.55;;;11.20;45.80;;;;;;5045963;28;20194;-77
2021/03/03 09:06:55;;;;;;;12.18;6.15;;;11.30;45.40;;;;;;5042078;28;20190;-77
2021/03/03 09:09:24;;;;;;;9.02;6.57;;;11.30;43.70;;;;;;5044382;28;20234;-77
2021/03/03 09:11:59;;;;;;;10.20;5.82;;;11.30;43.10;;;;;;5044714;28;20295;-77
2021/03/03 09:14:28;;;;;;;13.57;10.00;;;11.40;43.20;;;;;;5043253;28;20221;-77
2021/03/03 09:16:57;;;;;;;7.50;5.75;;;11.60;43.70;;;;;;5044427;28;20213;-77
2021/03/03 09:19:24;;;;;;;8.30;5.55;;;11.70;43.10;;;;;;5041625;28;20261;-78
2021/03/03 09:21:51;;;;;;;13.95;5.40;;;11.90;43.20;;;;;;5046273;28;20198;-78
2021/03/03 09:24:18;;;;;;;11.48;5.32;;;12.20;44.00;;;;;;5041272;28;20248;-78
2021/03/03 09:26:45;;;;;;;8.57;4.55;;;12.50;42.50;;;;;;5045148;28;20545;-77
2021/03/03 09:29:29;;;;;;;6.40;4.30;;;12.70;41.70;;;;;;5042541;28;20191;-78
2021/03/03 09:32:06;;;;;;;8.95;5.38;;;12.90;41.80;;;;;;5042530;28;20241;-78
2021/03/03 09:34:35;;;;;;;8.52;4.88;;;13.30;41.50;;;;;;5042072;28;20277;-78
2021/03/03 09:37:04;;;;;;;11.73;8.18;;;13.70;40.90;;;;;;5044625;28;20293;-77
2021/03/03 09:39:32;;;;;;;25.10;18.15;;;14.00;40.30;;;;;;5042059;28;20217;-77
2021/03/03 09:42:03;;;;;;;38.70;25.42;;;14.40;40.50;;;;;;5043348;28;20199;-79
2021/03/03 09:44:57;;;;;;;49.70;30.65;;;14.80;38.30;;;;;;5043357;28;20187;-78
2021/03/03 09:47:27;;;;;;;25.50;16.38;;;15.80;38.60;;;;;;5042743;28;20205;-78
2021/03/03 09:49:55;;;;;;;26.27;17.98;;;16.50;34.70;;;;;;5041722;28;20190;-79
2021/03/03 09:52:22;;;;;;;23.60;16.52;;;16.50;34.00;;;;;;5046293;28;20198;-79
2021/03/03 09:54:53;;;;;;;19.48;13.02;;;16.50;33.70;;;;;;5040235;28;20704;-78
2021/03/03 09:57:21;;;;;;;19.35;12.02;;;16.50;34.30;;;;;;5043969;28;20210;-79
2021/03/03 09:59:52;;;;;;;13.68;10.23;;;16.40;34.50;;;;;;5044981;28;20194;-79
2021/03/03 10:02:23;;;;;;;12.93;9.45;;;16.40;34.40;;;;;;5039282;28;20641;-79
2021/03/03 10:04:51;;;;;;;13.13;7.60;;;16.30;34.60;;;;;;5045395;28;20209;-79
2021/03/03 10:07:21;;;;;;;9.07;5.82;;;16.30;34.60;;;;;;5042745;28;20240;-79
2021/03/03 10:09:51;;;;;;;13.88;5.63;;;16.40;35.50;;;;;;5041273;28;20226;-78
2021/03/03 10:12:21;;;;;;;10.95;5.50;;;16.50;36.20;;;;;;5039770;28;20229;-77
2021/03/03 10:15:06;;;;;;;11.10;5.03;;;16.90;37.80;;;;;;5041817;28;20310;-78
2021/03/03 10:17:39;;;;;;;8.40;7.20;;;17.60;37.50;;;;;;5039942;28;20720;-80
2021/03/03 10:20:28;;;;;;;11.83;7.70;;;17.70;35.00;;;;;;5042965;28;21002;-79
2021/03/03 10:22:55;;;;;;;13.07;6.03;;;17.70;34.70;;;;;;5037162;28;20437;-79
2021/03/03 10:25:30;;;;;;;11.00;6.30;;;17.90;34.80;;;;;;5044722;28;20441;-80
2021/03/03 10:28:06;;;;;;;7.90;5.27;;;18.00;34.00;;;;;;5046429;28;20441;-80
2021/03/03 10:30:34;;;;;;;9.83;7.20;;;18.00;32.40;;;;;;5046442;28;20476;-79
2021/03/03 10:33:01;;;;;;;10.43;7.43;;;18.00;32.40;;;;;;5042031;28;20432;-78
2021/03/03 10:35:30;;;;;;;9.83;6.93;;;17.90;32.70;;;;;;5049799;28;20564;-80
2021/03/03 10:38:17;;;;;;;10.70;7.70;;;17.80;33.20;;;;;;5042296;28;20846;-78
2021/03/03 10:40:45;;;;;;;9.43;6.90;;;17.70;32.10;;;;;;5044360;28;20498;-80
2021/03/03 10:43:13;;;;;;;11.73;7.90;;;17.70;31.60;;;;;;5042365;28;20437;-79
2021/03/03 10:45:41;;;;;;;13.17;8.80;;;17.80;31.50;;;;;;5050025;28;20972;-79
2021/03/03 10:48:26;;;;;;;15.60;7.90;;;18.00;31.50;;;;;;5046515;28;20445;-78
2021/03/03 10:50:53;;;;;;;9.83;6.90;;;18.10;31.20;;;;;;5045710;28;20456;-78
2021/03/03 10:53:20;;;;;;;9.87;6.60;;;18.20;31.70;;;;;;5043647;28;20434;-80
2021/03/03 10:55:47;;;;;;;14.00;7.87;;;18.30;31.50;;;;;;5050107;28;20520;-80
2021/03/03 10:58:15;;;;;;;14.00;7.67;;;18.50;30.80;;;;;;5050359;28;20472;-79
2021/03/03 11:00:56;;;;;;;13.93;7.97;;;18.70;30.50;;;;;;5043350;28;20460;-79
2021/03/03 11:03:23;;;;;;;11.23;7.87;;;18.80;30.20;;;;;;5051211;28;20944;-78
2021/03/03 11:05:51;;;;;;;14.23;8.00;;;18.80;30.00;;;;;;5054486;28;21009;-80
2021/03/03 11:08:18;;;;;;;9.50;5.47;;;18.90;30.10;;;;;;5052848;28;20923;-80
2021/03/03 11:10:45;;;;;;;9.33;5.30;;;19.00;29.70;;;;;;5052129;28;20784;-80
2021/03/03 11:13:11;;;;;;;7.90;5.13;;;18.90;28.90;;;;;;5050947;28;20433;-79
2021/03/03 11:15:40;;;;;;;9.17;5.80;;;18.70;29.10;;;;;;5054316;28;20437;-80
2021/03/03 11:18:09;;;;;;;14.20;6.60;;;18.50;29.40;;;;;;5054378;28;20930;-79
2021/03/03 11:20:36;;;;;;;7.40;4.67;;;18.50;29.90;;;;;;5053852;28;20915;-80
2021/03/03 11:23:02;;;;;;;8.40;4.53;;;18.60;30.60;;;;;;5053829;28;20437;-80
2021/03/03 11:25:29;;;;;;;11.63;5.20;;;18.70;30.10;;;;;;5054213;28;20503;-79
2021/03/03 11:27:55;;;;;;;9.87;5.20;;;18.80;30.40;;;;;;5054450;28;20522;-80
2021/03/03 11:30:22;;;;;;;9.60;5.43;;;19.00;30.00;;;;;;5051580;28;20961;-81
2021/03/03 11:32:50;;;;;;;10.10;5.97;;;19.00;28.70;;;;;;5053259;28;20478;-79
2021/03/03 11:35:18;;;;;;;9.97;4.80;;;19.00;29.10;;;;;;5045685;28;20477;-79
2021/03/03 11:37:45;;;;;;;8.40;4.47;;;19.10;29.20;;;;;;5052893;28;20480;-80
2021/03/03 11:40:16;;;;;;;8.93;5.20;;;19.20;28.60;;;;;;5053007;28;20491;-80
2021/03/03 11:42:46;;;;;;;11.20;5.63;;;19.10;29.20;;;;;;5049629;28;20437;-80
2021/03/03 11:45:15;;;;;;;10.20;5.33;;;19.20;29.70;;;;;;5051643;28;20444;-81
2021/03/03 11:47:43;;;;;;;6.20;5.03;;;19.20;29.30;;;;;;5053806;28;20436;-80
2021/03/03 11:50:11;;;;;;;8.03;5.00;;;19.20;29.50;;;;;;5051074;28;20426;-80
2021/03/03 11:52:43;;;;;;;8.93;4.83;;;19.30;28.90;;;;;;5049381;28;20439;-80
2021/03/03 11:55:10;;;;;;;18.20;5.73;;;19.50;28.50;;;;;;5051297;28;20498;-80
2021/03/03 11:58:02;;;;;;;9.30;4.40;;;19.50;28.20;;;;;;5052685;28;20456;-80
2021/03/03 12:00:31;;;;;;;7.20;4.07;;;19.50;28.30;;;;;;5048558;28;20453;-79
2021/03/03 12:03:00;;;;;;;10.33;5.03;;;19.50;28.10;;;;;;5051658;28;20441;-79
2021/03/03 12:05:35;;;;;;;6.43;4.80;;;19.40;27.10;;;;;;5053498;28;20901;-79
2021/03/03 12:08:06;;;;;;;7.40;4.47;;;19.30;27.20;;;;;;5052038;28;20515;-80
2021/03/03 12:10:38;;;;;;;9.00;4.90;;;19.40;27.50;;;;;;5053378;28;20445;-80
2021/03/03 12:13:05;;;;;;;11.37;5.37;;;19.40;26.90;;;;;;5052305;28;20433;-80
2021/03/03 12:15:36;;;;;;;7.27;4.93;;;19.40;26.40;;;;;;5052341;28;20829;-80
2021/03/03 12:18:03;;;;;;;6.13;4.70;;;19.40;26.60;;;;;;5050539;28;20791;-80
2021/03/03 12:20:31;;;;;;;7.83;4.60;;;19.40;26.90;;;;;;5053066;28;20433;-81
2021/03/03 12:23:00;;;;;;;10.37;4.97;;;19.30;26.90;;;;;;5048778;28;20445;-80
2021/03/03 12:25:29;;;;;;;7.47;4.67;;;19.30;26.30;;;;;;5049234;28;20943;-80
2021/03/03 12:27:59;;;;;;;8.73;5.00;;;19.30;25.90;;;;;;5046693;28;20453;-81
2021/03/03 12:30:31;;;;;;;6.17;4.37;;;19.10;26.50;;;;;;5052538;28;20472;-80
2021/03/03 12:33:00;;;;;;;7.63;5.00;;;19.00;26.70;;;;;;5046472;28;20490;-79
2021/03/03 12:35:36;;;;;;;13.40;4.13;;;19.00;27.00;;;;;;5051672;28;20484;-79
2021/03/03 12:38:08;;;;;;;7.47;4.33;;;18.90;26.30;;;;;;5052689;28;20791;-79
2021/03/03 12:40:36;;;;;;;7.30;4.20;;;18.90;25.90;;;;;;5052050;28;21327;-80
2021/03/03 12:43:16;;;;;;;9.43;6.57;;;18.80;26.20;;;;;;5052898;28;20931;-80
2021/03/03 12:45:49;;;;;;;9.37;4.50;;;18.60;25.90;;;;;;5051693;28;20444;-80
2021/03/03 12:48:17;;;;;;;9.83;4.50;;;18.50;26.50;;;;;;5052474;28;20447;-80
2021/03/03 12:50:44;;;;;;;8.67;4.10;;;18.40;26.20;;;;;;5049125;28;20563;-80
2021/03/03 12:53:11;;;;;;;7.73;4.67;;;18.30;26.50;;;;;;5052542;28;20456;-79
2021/03/03 12:55:39;;;;;;;6.33;3.30;;;18.20;26.40;;;;;;5048790;28;20478;-80
2021/03/03 12:58:11;;;;;;;5.27;3.80;;;18.20;26.50;;;;;;5051581;28;20441;-80
2021/03/03 13:00:45;;;;;;;6.30;3.90;;;18.10;26.50;;;;;;5046269;28;20524;-80
2021/03/03 13:03:12;;;;;;;6.90;3.60;;;18.00;26.70;;;;;;5052254;28;20436;-81